Airfield :
LOGIN :

Register | Disclaimer

   EN    FR    IT 

 










Legend :    VFR   Marginal VFR   IFR   Intensive IFR   Very Intensive IFR
Visi :
Ceiling :
>= 8 km
>= 3000ft
5 to 8 km
1000 to 3000 ft
1500m to 5 km
500 to 1000 ft
800 to 1500m
200 to 500 ft
< 800m
< 200 ft
Symbols :   Thunderstorms  Fog  Heavy snow  Heavy precipitations  Wind > 20 kt
SIGMETs :     Misc.  Thunderstorms  Icing  Turbulence  Mountain Waves  Volcanic Ashes







- Airport Elevation : 270 ft
- IATA code : OXF
- Download approach charts


EGTK - Oxford (Kidlington)

CURRENT METAR :
  • 201050Z 21015KT 9999 FEW020 SCT024 11/07 Q1018

EXPIRED METARs :
  • 201020Z 22015KT 9999 FEW017 SCT020 11/07 Q1018
  • 200950Z 21015KT 9999 FEW019 10/07 Q1018
  • 200920Z 21013KT 9999 FEW015 10/07 Q1017
  • 200850Z 21010KT 9999 FEW013 SCT015 09/07 Q1017
  • 200820Z 20011KT 9999 FEW015 08/07 Q1017
  • 200750Z 20010KT 9999 FEW014 SCT017 08/07 Q1017

TAF TAF EGTK
Valid from the 20 at 09:00 until the 20 at 18:00 UTC


200804Z 2009/2018 20008KT 9999 SCT020
No reported NOTAMs for that airfield.
1 SIGMET reported for the London FIR (EGTT) :
 
Severe mountain waves
EGTT SIGMET 02 VALID 200930/201330 EGRR
EGTT LONDON FIR SEV MTW FCST WI N5500 E00006 - N5430 E00009 - N5224 W00209 - N5222 W00327 - N5355 W00530 - N5500 W00530 - N5500 E00006 FL030/250 STNR NC=



MET'MAP, your aeronautical weather chart ! - Copyright ORBIFLY December 2007 - Disclaimer

ORBIFLY MET'MAP TEAM :

Programming & Development : Alexandra Zaïnal
Concept & Development : Baudouin d'Aumeries
Co-Development & Prog : Marc-Olivier Méhu
Technical & hardware support : Manuel Goepfert

Contact : metmap@orbifly.com




SOURCES & CREDITS :

   NOAA